Погода Блумингтонна неделю

Калифорния, США

01 - 07 сентября
  • 01сентября
    Сегодня
    +16°
    +32°
    Ясно и безоблачно
    ВремяПогодаТемператураВлажностьДавлениеВетер, м/сВероятность осадков
    02:00Ясно и безоблачно+20°C68 %732 мм1.1 м/с2 %
    05:00Ясно и безоблачно+17°C76 %731 мм0.3 м/с2 %
    08:00Ясно и безоблачно+19°C74 %732 мм0.7 м/с2 %
    11:00Ясно и безоблачно+27°C41 %733 мм0.9 м/с2 %
    14:00Ясно и безоблачно+31°C27 %732 мм5.2 м/с2 %
    17:00Ясно и безоблачно+30°C27 %731 мм7.4 м/с2 %
    20:00Ясно и безоблачно+24°C46 %731 мм3.7 м/с2 %
    23:00Ясно и безоблачно+20°C57 %733 мм2.0 м/с2 %
  • 02сентября
    Среда
    +16°
    +31°
    Ясно и безоблачно
    ВремяПогодаТемператураВлажностьДавлениеВетер, м/сВероятность осадков
    02:00Ясно и безоблачно+18°C67 %733 мм0.5 м/с2 %
    05:00Ясно и безоблачно+17°C70 %732 мм0.3 м/с2 %
    08:00Ясно и безоблачно+18°C64 %733 мм0.5 м/с2 %
    11:00Ясно и безоблачно+25°C37 %733 мм0.7 м/с2 %
    14:00Ясно и безоблачно+31°C27 %732 мм4.2 м/с2 %
    17:00Ясно и безоблачно+29°C27 %731 мм7.0 м/с2 %
    20:00Ясно и безоблачно+23°C45 %731 мм3.9 м/с2 %
    23:00Ясно и безоблачно+20°C58 %732 мм0.9 м/с2 %
  • 03сентября
    Четверг
    +16°
    +31°
    Ясно и безоблачно
    ВремяПогодаТемператураВлажностьДавлениеВетер, м/сВероятность осадков
    02:00Ясно и безоблачно+18°C64 %732 мм0.3 м/с2 %
    05:00Ясно и безоблачно+17°C68 %731 мм0.1 м/с2 %
    08:00Ясно и безоблачно+19°C62 %732 мм0.3 м/с2 %
    11:00Ясно и безоблачно+25°C37 %732 мм0.4 м/с2 %
    14:00Ясно и безоблачно+31°C28 %730 мм3.8 м/с2 %
    17:00Ясно и безоблачно+28°C36 %729 мм7.0 м/с2 %
    20:00Ясно и безоблачно+22°C63 %729 мм3.5 м/с2 %
    23:00Ясно и безоблачно+20°C71 %730 мм1.2 м/с2 %
  • 04сентября
    Пятница
    +17°
    +31°
    Ясно и безоблачно
    ВремяПогодаТемператураВлажностьДавлениеВетер, м/сВероятность осадков
    02:00Ясно и безоблачно+18°C78 %730 мм0.1 м/с2 %
    05:00Ясно и безоблачно+17°C82 %730 мм0.3 м/с2 %
    08:00Ясно и безоблачно+18°C75 %731 мм0.6 м/с2 %
    11:00Ясно и безоблачно+25°C41 %731 мм0.5 м/с2 %
    14:00Ясно и безоблачно+31°C28 %730 мм3.5 м/с2 %
    17:00Ясно и безоблачно+29°C35 %729 мм6.6 м/с2 %
    20:00Ясно и безоблачно+23°C58 %730 мм3.4 м/с2 %
    23:00Ясно и безоблачно+21°C63 %731 мм1.0 м/с2 %
  • 05сентября
    Суббота
    +21°
    +33°
    Ясно и безоблачно
    ВремяПогодаТемператураВлажностьДавлениеВетер, м/сВероятность осадков
    02:00Ясно и безоблачно+19°C65 %731 мм0.3 м/с4 %
    05:00Ясно и безоблачно+18°C65 %730 мм0.5 м/с8 %
    08:00Ясно и безоблачно+20°C53 %731 мм1.1 м/с15 %
    11:00Практически безоблачно+28°C23 %732 мм0.5 м/с18 %
    14:00Ясно и безоблачно+33°C17 %731 мм3.9 м/с25 %
    17:00Ясно и безоблачно+31°C25 %730 мм6.1 м/с26 %
    20:00Ясно и безоблачно+26°C42 %730 мм3.7 м/с23 %
    23:00Облачно с прояснениями+24°C47 %731 мм0.7 м/с24 %
  • 06сентября
    Воскресенье
    +21°
    +32°
    Ясно и безоблачно
    ВремяПогодаТемператураВлажностьДавлениеВетер, м/сВероятность осадков
    05:00Небольшая облачность+21°C67 %730 мм0.8 м/с27 %
    11:00Ясно и безоблачно+27°C50 %731 мм0.6 м/с24 %
    17:00Ясно и безоблачно+32°C55 %730 мм5.6 м/с35 %
    23:00Ясно и безоблачно+26°C49 %732 мм1.2 м/с30 %
  • 07сентября
    Понедельник
    +20°
    +34°
    Ясно и безоблачно
    ВремяПогодаТемператураВлажностьДавлениеВетер, м/сВероятность осадков
    05:00Ясно и безоблачно+22°C58 %731 мм1.2 м/с21 %
    11:00Ясно и безоблачно+29°C28 %732 мм2.4 м/с20 %
    17:00Ясно и безоблачно+31°C22 %730 мм3.7 м/с32 %
    23:00Ясно и безоблачно+24°C50 %731 мм1.2 м/с24 %
Мы используем cookies
Соглашаюсь